Time;durP1;ratioP1;P1;durP2;ratioP2;P2;SDS_P1;SDS_P2;PMS_P1;PMS_P2;Temp;Humidity;BMP_temperature;BMP_pressure;BME280_temperature;BME280_humidity;BME280_pressure;Samples;Min_cycle;Max_cycle;Signal;HPM_P1;HPM_P2
2021/03/30 00:02:26;;;;;;;;;;;;;;;6.85;100.00;100029.63;5135513;27;19967;-79
2021/03/30 00:04:53;;;;;;;;;;;;;;;6.73;100.00;100030.66;5126726;27;19923;-79
2021/03/30 00:07:20;;;;;;;;;;;;;;;6.68;100.00;100022.63;5119903;27;19923;-79
2021/03/30 00:09:47;;;;;;;;;;;;;;;6.68;100.00;100030.19;5138172;27;20282;-79
2021/03/30 00:12:13;;;;;;;;;;;;;;;6.62;100.00;100021.34;5138356;27;19977;-79
2021/03/30 00:14:40;;;;;;;;;;;;;;;6.54;100.00;100007.75;5113620;28;19923;-79
2021/03/30 00:17:07;;;;;;;;;;;;;;;6.49;100.00;100016.38;5129571;27;19923;-79
2021/03/30 00:19:33;;;;;;;;;;;;;;;6.45;100.00;100010.00;5133891;27;19947;-79
2021/03/30 00:22:00;;;;;;;;;;;;;;;6.40;100.00;100007.53;5126700;27;19928;-79
2021/03/30 00:24:27;;;;;;;;;;;;;;;6.37;100.00;100013.81;5112370;27;20306;-79
2021/03/30 00:26:54;;;;;;;;;;;;;;;6.32;100.00;100009.38;5117351;28;19954;-79
2021/03/30 00:29:20;;;;;;;;;;;;;;;6.29;100.00;100004.59;5131536;27;20330;-79
2021/03/30 00:31:47;;;;;;;;;;;;;;;6.30;100.00;100008.16;5137760;27;20393;-79
2021/03/30 00:34:14;;;;;;;;;;;;;;;6.22;100.00;100012.00;5119268;27;20317;-79
2021/03/30 00:36:40;;;;;;;;;;;;;;;6.25;100.00;100005.69;5137662;27;19934;-79
2021/03/30 00:39:07;;;;;;;;;;;;;;;6.15;100.00;100017.44;5119371;27;19923;-79
2021/03/30 00:41:43;;;;;;;;;;;;;;;6.24;100.00;100015.22;5119464;27;19923;-79
2021/03/30 00:44:10;;;;;;;;;;;;;;;6.28;100.00;100016.88;5137530;27;19923;-79
2021/03/30 00:46:39;;;;;;;;;;;;;;;6.31;100.00;100009.75;5137490;27;20381;-79
2021/03/30 00:49:06;;;;;;;;;;;;;;;6.48;100.00;100014.78;5137247;27;19923;-79
2021/03/30 00:51:33;;;;;;;;;;;;;;;6.77;100.00;100014.81;5118830;27;19996;-79
2021/03/30 00:54:18;;;;;;;;;;;;;;;6.99;100.00;100005.63;5137276;27;20434;-79
2021/03/30 00:57:00;;;;;;;;;;;;;;;7.41;100.00;99999.75;5119179;27;20495;-79
2021/03/30 00:59:27;;;;;;;;;;;;;;;7.71;100.00;99992.13;5119091;27;19924;-79
2021/03/30 01:01:54;;;;;;;;;;;;;;;7.73;100.00;99998.13;5118214;27;19923;-79
2021/03/30 01:04:21;;;;;;;;;;;;;;;7.81;100.00;99999.81;5137428;27;19931;-79
2021/03/30 01:06:47;;;;;;;;;;;;;;;7.84;100.00;99987.09;5101706;27;20348;-79
2021/03/30 01:09:35;;;;;;;;;;;;;;;7.86;100.00;99996.66;5118590;27;19927;-79
2021/03/30 01:12:05;;;;;;;;;;;;;;;7.87;100.00;99987.16;5136869;27;20008;-79
2021/03/30 01:14:37;;;;;;;;;;;;;;;7.89;100.00;99981.97;5118397;27;20286;-79
2021/03/30 01:17:23;;;;;;;;;;;;;;;7.87;100.00;99978.81;5118488;27;19931;-79
2021/03/30 01:19:56;;;;;;;;;;;;;;;7.81;100.00;99976.75;5136683;27;19923;-79
2021/03/30 01:22:37;;;;;;;;;;;;;;;7.71;100.00;99983.00;5104889;28;19924;-80
2021/03/30 01:25:05;;;;;;;;;;;;;;;7.51;100.00;99976.03;5104498;27;19927;-79
2021/03/30 01:27:46;;;;;;;;;;;;;;;7.49;100.00;99979.22;5097539;28;19969;-79
2021/03/30 01:30:15;;;;;;;;;;;;;;;7.49;100.00;99976.44;5115700;28;19923;-79
2021/03/30 01:32:52;;;;;;;;;;;;;;;7.51;100.00;99978.81;5111699;27;19924;-79
2021/03/30 01:35:23;;;;;;;;;;;;;;;7.62;100.00;99974.19;5119011;27;19923;-79
2021/03/30 01:37:50;;;;;;;;;;;;;;;7.54;100.00;99967.75;5136525;27;19997;-79
2021/03/30 01:40:23;;;;;;;;;;;;;;;7.52;100.00;99972.88;5117637;27;19968;-79
2021/03/30 01:42:51;;;;;;;;;;;;;;;7.44;100.00;99973.19;5136650;27;19927;-79
2021/03/30 01:45:19;;;;;;;;;;;;;;;7.46;100.00;99977.19;5136194;27;19930;-79
2021/03/30 01:47:46;;;;;;;;;;;;;;;7.41;100.00;99974.75;5136317;27;19934;-79
2021/03/30 01:50:14;;;;;;;;;;;;;;;7.38;100.00;99965.19;5136011;27;19927;-79
2021/03/30 01:52:41;;;;;;;;;;;;;;;7.33;100.00;99973.06;5115850;28;19976;-79
2021/03/30 01:55:09;;;;;;;;;;;;;;;7.11;100.00;99971.22;5128606;27;20492;-79
2021/03/30 01:57:37;;;;;;;;;;;;;;;6.93;100.00;99970.19;5118045;27;19976;-79
2021/03/30 02:00:08;;;;;;;;;;;;;;;6.77;100.00;99972.38;5136087;27;19923;-79
2021/03/30 02:02:41;;;;;;;;;;;;;;;6.59;100.00;99965.75;5115515;27;19972;-78
2021/03/30 02:05:08;;;;;;;;;;;;;;;6.50;100.00;99968.00;5101014;27;19924;-78
2021/03/30 02:07:35;;;;;;;;;;;;;;;6.37;100.00;99969.41;5125422;27;20064;-78
2021/03/30 02:10:06;;;;;;;;;;;;;;;6.48;100.00;99971.16;5128362;27;19923;-78
2021/03/30 02:12:34;;;;;;;;;;;;;;;6.46;100.00;99964.38;5136094;27;19929;-78
2021/03/30 02:15:02;;;;;;;;;;;;;;;6.58;100.00;99967.75;5116450;27;19923;-78
2021/03/30 02:17:32;;;;;;;;;;;;;;;6.81;100.00;99962.09;5124736;27;19974;-78
2021/03/30 02:20:11;;;;;;;;;;;;;;;6.75;100.00;99958.06;5119527;27;19931;-78
2021/03/30 02:22:58;;;;;;;;;;;;;;;6.69;100.00;99951.22;5115280;28;19924;-78
2021/03/30 02:25:25;;;;;;;;;;;;;;;6.72;100.00;99954.06;5102146;27;19930;-78
2021/03/30 02:27:54;;;;;;;;;;;;;;;6.69;100.00;99967.91;5115151;28;20386;-78
2021/03/30 02:30:22;;;;;;;;;;;;;;;6.67;100.00;99967.47;5133984;27;19923;-78
2021/03/30 02:32:49;;;;;;;;;;;;;;;6.73;100.00;99949.28;5117277;27;19927;-78
2021/03/30 02:35:18;;;;;;;;;;;;;;;6.89;100.00;99953.47;5135276;27;19923;-78
2021/03/30 02:37:45;;;;;;;;;;;;;;;6.90;100.00;99945.94;5134839;27;19923;-78
2021/03/30 02:40:14;;;;;;;;;;;;;;;7.01;100.00;99955.22;5116259;27;19931;-78
2021/03/30 02:42:41;;;;;;;;;;;;;;;7.04;100.00;99955.25;5115008;28;19931;-78
2021/03/30 02:45:11;;;;;;;;;;;;;;;7.02;100.00;99959.59;5114657;28;19930;-78
2021/03/30 02:47:40;;;;;;;;;;;;;;;6.97;100.00;99959.91;5121595;27;20075;-78
2021/03/30 02:50:07;;;;;;;;;;;;;;;6.92;100.00;99965.84;5122153;27;19930;-78
2021/03/30 02:52:34;;;;;;;;;;;;;;;6.95;100.00;99962.28;5096336;28;20008;-78
2021/03/30 02:55:02;;;;;;;;;;;;;;;6.89;100.00;99955.47;5114699;28;19928;-78
2021/03/30 02:57:30;;;;;;;;;;;;;;;6.86;100.00;99956.22;5114633;28;19923;-79
2021/03/30 02:59:57;;;;;;;;;;;;;;;6.83;100.00;99960.53;5124338;27;19924;-77
2021/03/30 03:02:25;;;;;;;;;;;;;;;6.91;100.00;99953.09;5116785;27;19928;-78
2021/03/30 03:04:52;;;;;;;;;;;;;;;6.97;100.00;99965.47;5134870;27;19941;-78
2021/03/30 03:07:19;;;;;;;;;;;;;;;6.89;100.00;99947.13;5120255;27;19931;-78
2021/03/30 03:09:46;;;;;;;;;;;;;;;6.89;100.00;99963.81;5134991;27;19992;-78
2021/03/30 03:12:12;;;;;;;;;;;;;;;6.90;100.00;99959.84;5116747;27;19931;-78
2021/03/30 03:14:41;;;;;;;;;;;;;;;6.94;100.00;99957.91;5134777;27;19930;-78
2021/03/30 03:17:08;;;;;;;;;;;;;;;6.86;100.00;99959.00;5134691;27;19969;-78
2021/03/30 03:19:38;;;;;;;;;;;;;;;6.90;100.00;99954.28;5116322;27;19977;-78
2021/03/30 03:22:05;;;;;;;;;;;;;;;6.90;100.00;99959.84;5134829;27;19930;-78
2021/03/30 03:24:33;;;;;;;;;;;;;;;6.81;100.00;99951.00;5082936;27;20428;-78
2021/03/30 03:26:59;;;;;;;;;;;;;;;6.75;100.00;99947.75;5116291;28;20013;-78
2021/03/30 03:29:26;;;;;;;;;;;;;;;6.69;100.00;99956.78;5120848;28;19943;-78
2021/03/30 03:31:53;;;;;;;;;;;;;;;6.57;100.00;99951.47;5095813;28;19923;-78
2021/03/30 03:34:19;;;;;;;;;;;;;;;6.52;100.00;99954.56;5095944;28;20014;-78
2021/03/30 03:36:49;;;;;;;;;;;;;;;6.65;100.00;99955.94;5132164;27;20061;-78
2021/03/30 03:39:17;;;;;;;;;;;;;;;6.59;100.00;99955.44;5134762;27;19924;-78
2021/03/30 03:41:45;;;;;;;;;;;;;;;6.26;100.00;99947.03;5116060;28;19923;-78
2021/03/30 03:44:12;;;;;;;;;;;;;;;6.16;100.00;99947.69;5134355;28;19923;-78
2021/03/30 03:46:40;;;;;;;;;;;;;;;6.03;100.00;99949.06;5134477;28;19966;-78
2021/03/30 03:49:06;;;;;;;;;;;;;;;5.86;100.00;99944.00;5116172;28;19961;-78
2021/03/30 03:51:41;;;;;;;;;;;;;;;5.77;100.00;99954.53;5134210;28;19931;-78
2021/03/30 03:54:10;;;;;;;;;;;;;;;5.55;100.00;99950.59;5134236;28;19924;-78
2021/03/30 03:56:45;;;;;;;;;;;;;;;5.82;100.00;99956.22;5115807;28;19930;-78
2021/03/30 03:59:14;;;;;;;;;;;;;;;5.29;100.00;99947.72;5134403;28;20017;-78
2021/03/30 04:01:47;;;;;;;;;;;;;;;5.21;100.00;99954.31;5134555;28;19978;-78
2021/03/30 04:04:17;;;;;;;;;;;;;;;5.26;100.00;99965.09;5134243;28;20056;-78
2021/03/30 04:06:49;;;;;;;;;;;;;;;5.34;100.00;99958.53;5134230;28;19924;-78
2021/03/30 04:09:17;;;;;;;;;;;;;;;5.27;100.00;99961.16;5115923;28;19972;-78
2021/03/30 04:11:47;;;;;;;;;;;;;;;5.32;100.00;99960.84;5134043;28;19923;-78
2021/03/30 04:14:13;;;;;;;;;;;;;;;5.03;100.00;99972.53;5106344;28;19935;-78
2021/03/30 04:16:40;;;;;;;;;;;;;;;5.13;100.00;99965.63;5113782;28;19928;-78
2021/03/30 04:19:11;;;;;;;;;;;;;;;5.07;100.00;99967.09;5126306;28;20013;-78
2021/03/30 04:21:38;;;;;;;;;;;;;;;5.19;100.00;99966.94;5133934;28;19923;-78
2021/03/30 04:24:07;;;;;;;;;;;;;;;5.13;100.00;99966.44;5115635;28;19931;-78
2021/03/30 04:26:36;;;;;;;;;;;;;;;5.13;100.00;99960.91;5112016;28;19932;-78
2021/03/30 04:29:03;;;;;;;;;;;;;;;4.90;100.00;99968.31;5124060;28;20385;-78
2021/03/30 04:31:30;;;;;;;;;;;;;;;4.84;100.00;99964.25;5115705;28;19972;-78
2021/03/30 04:33:57;;;;;;;;;;;;;;;4.76;100.00;99967.22;5115499;28;19923;-78
2021/03/30 04:36:25;;;;;;;;;;;;;;;4.87;100.00;99963.50;5115597;28;19927;-78
2021/03/30 04:38:52;;;;;;;;;;;;;;;4.96;100.00;99966.88;5137597;27;19988;-79
2021/03/30 04:41:18;;;;;;;;;;;;;;;5.19;100.00;99964.16;5123852;27;20256;-79
2021/03/30 04:43:45;;;;;;;;;;;;;;;5.13;100.00;99966.44;5104405;27;19927;-79
2021/03/30 04:46:11;;;;;;;;;;;;;;;5.26;100.00;99973.41;5125752;27;19931;-79
2021/03/30 04:48:38;;;;;;;;;;;;;;;5.28;100.00;99978.59;5098749;28;19927;-79
2021/03/30 04:51:05;;;;;;;;;;;;;;;5.16;100.00;99976.78;5126848;27;20010;-79
2021/03/30 04:53:33;;;;;;;;;;;;;;;5.05;100.00;99975.75;5118940;27;19930;-79
2021/03/30 04:56:00;;;;;;;;;;;;;;;5.25;100.00;99985.66;5128858;27;19988;-79
2021/03/30 04:58:27;;;;;;;;;;;;;;;5.25;100.00;99991.22;5109841;28;19931;-79
2021/03/30 05:00:54;;;;;;;;;;;;;;;5.34;100.00;99986.25;5136902;27;19977;-79
2021/03/30 05:03:20;;;;;;;;;;;;;;;5.42;100.00;99990.72;5137059;27;19965;-79
2021/03/30 05:05:47;;;;;;;;;;;;;;;5.63;100.00;99995.06;5137048;27;20270;-79
2021/03/30 05:08:14;;;;;;;;;;;;;;;5.79;100.00;99984.66;5137235;27;19923;-79
2021/03/30 05:10:40;;;;;;;;;;;;;;;5.81;100.00;99985.09;5136890;27;20022;-79
2021/03/30 05:13:07;;;;;;;;;;;;;;;5.89;100.00;99993.22;5083870;28;20371;-79
2021/03/30 05:15:34;;;;;;;;;;;;;;;6.06;100.00;100000.25;5116250;28;20393;-79
2021/03/30 05:18:00;;;;;;;;;;;;;;;6.12;100.00;99996.00;5115704;27;20561;-79
2021/03/30 05:20:27;;;;;;;;;;;;;;;6.23;100.00;100008.03;5126846;27;19931;-79
2021/03/30 05:22:54;;;;;;;;;;;;;;;6.25;100.00;100012.06;5132031;27;20449;-79
2021/03/30 05:25:20;;;;;;;;;;;;;;;6.27;100.00;100004.16;5105440;28;19939;-79
2021/03/30 05:27:47;;;;;;;;;;;;;;;6.36;100.00;100001.91;5118704;27;19953;-79
2021/03/30 05:30:14;;;;;;;;;;;;;;;6.27;100.00;100001.38;5122315;27;19931;-79
2021/03/30 05:32:41;;;;;;;;;;;;;;;6.30;100.00;100008.94;5136003;27;20014;-79
2021/03/30 05:35:09;;;;;;;;;;;;;;;6.11;100.00;100009.03;5097981;28;19931;-80
2021/03/30 05:37:40;;;;;;;;;;;;;;;6.01;100.00;100014.41;5105838;28;20294;-81
2021/03/30 05:40:10;;;;;;;;;;;;;;;5.87;100.00;100014.16;5133776;27;19983;-81
2021/03/30 05:42:39;;;;;;;;;;;;;;;5.84;100.00;100017.69;5101632;28;19951;-81
2021/03/30 05:45:06;;;;;;;;;;;;;;;5.87;100.00;100016.94;5097345;28;20027;-81
2021/03/30 05:47:34;;;;;;;;;;;;;;;5.86;100.00;100026.44;5124559;27;19930;-81
2021/03/30 05:50:04;;;;;;;;;;;;;;;5.86;100.00;100032.00;5118044;27;20014;-80
2021/03/30 05:52:42;;;;;;;;;;;;;;;5.84;100.00;100028.78;5115100;28;19930;-79
2021/03/30 05:55:09;;;;;;;;;;;;;;;5.81;100.00;100029.47;5115156;27;19924;-79
2021/03/30 05:57:37;;;;;;;;;;;;;;;5.72;100.00;100031.69;5102455;27;19923;-79
2021/03/30 06:00:05;;;;;;;;;;;;;;;5.73;100.00;100033.28;5097570;28;20425;-79
2021/03/30 06:02:39;;;;;;;;;;;;;;;5.82;100.00;100031.09;5122341;27;19927;-79
2021/03/30 06:05:08;;;;;;;;;;;;;;;5.85;100.00;100027.59;5097597;27;20031;-79
2021/03/30 06:07:38;;;;;;;;;;;;;;;5.89;100.00;100031.25;5117420;27;19988;-79
2021/03/30 06:10:08;;;;;;;;;;;;;;;5.86;100.00;100029.22;5114755;28;19924;-79
2021/03/30 06:12:35;;;;;;;;;;;;;;;5.99;100.00;100030.63;5096137;28;20063;-79
2021/03/30 06:15:03;;;;;;;;;;;;;;;5.91;100.00;100040.00;5123914;27;19923;-79
2021/03/30 06:17:41;;;;;;;;;;;;;;;5.95;100.00;100036.13;5114406;28;20302;-79
2021/03/30 06:20:09;;;;;;;;;;;;;;;5.96;100.00;100026.63;5114618;28;19931;-79
2021/03/30 06:22:46;;;;;;;;;;;;;;;6.04;100.00;100035.88;5114496;28;20435;-79
2021/03/30 06:25:33;;;;;;;;;;;;;;;6.00;100.00;100033.03;5098882;28;20316;-78
2021/03/30 06:28:13;;;;;;;;;;;;;;;5.98;100.00;100040.13;5121421;27;19923;-79
2021/03/30 06:30:52;;;;;;;;;;;;;;;6.15;100.00;100039.66;5114935;27;19928;-78
2021/03/30 06:33:19;;;;;;;;;;;;;;;6.07;100.00;100035.13;5096829;28;19954;-79
2021/03/30 06:35:46;;;;;;;;;;;;;;;6.13;100.00;100040.00;5096304;27;20022;-79
2021/03/30 06:38:13;;;;;;;;;;;;;;;6.23;100.00;100041.34;5096853;27;19930;-77
2021/03/30 06:40:42;;;;;;;;;;;;;;;6.34;100.00;100045.09;5119914;27;19927;-79
2021/03/30 06:46:06;;;;;;;;;;;;;;;6.96;100.00;100039.72;5114228;28;19930;-78
2021/03/30 06:48:34;;;;;;;;;;;;;;;7.57;100.00;100044.84;5106568;27;20605;-78
2021/03/30 06:51:15;;;;;;;;;;;;;;;8.45;100.00;100037.41;5113720;28;19927;-78
2021/03/30 06:53:42;;;;;;;;;;;;;;;9.25;100.00;100028.75;5119707;27;19927;-78
2021/03/30 06:56:09;;;;;;;;;;;;;;;9.78;100.00;100028.91;5113909;28;19923;-78
2021/03/30 06:58:56;;;;;;;;;;;;;;;10.46;100.00;100020.25;5126047;27;19947;-78
2021/03/30 07:01:24;;;;;;;;;;;;;;;11.02;100.00;100031.34;5106590;28;20394;-77
2021/03/30 07:03:55;;;;;;;;;;;;;;;11.37;100.00;100028.44;5114686;27;19931;-77
2021/03/30 07:06:23;;;;;;;;;;;;;;;11.61;100.00;100027.53;5134680;27;19945;-79
2021/03/30 07:08:50;;;;;;;;;;;;;;;11.88;100.00;100034.19;5116632;27;19927;-79
2021/03/30 07:11:17;;;;;;;;;;;;;;;12.19;100.00;100029.59;5116494;27;19923;-80
2021/03/30 07:13:44;;;;;;;;;;;;;;;12.69;100.00;100031.56;5105542;28;20383;-79
2021/03/30 07:16:23;;;;;;;;;;;;;;;12.99;100.00;100035.69;5113986;28;19924;-79
2021/03/30 07:18:50;;;;;;;;;;;;;;;13.34;100.00;100029.72;5118829;27;20443;-87
2021/03/30 07:21:22;;;;;;;;;;;;;;;13.41;100.00;100040.84;5091899;27;19930;-83
2021/03/30 07:23:57;;;;;;;;;;;;;;;13.09;100.00;100037.63;5097228;28;19923;-92
2021/03/30 07:26:26;;;;;;;;;;;;;;;12.23;100.00;100033.97;5071600;28;19924;-79
2021/03/30 07:29:00;;;;;;;;;;;;;;;11.91;100.00;100044.59;5111030;28;19976;-78
2021/03/30 07:31:36;;;;;;;;;;;;;;;11.74;100.00;100037.06;5087736;28;20496;-76
2021/03/30 07:34:12;;;;;;;;;;;;;;;12.43;100.00;100037.81;5084996;28;20381;-76
2021/03/30 07:36:54;;;;;;;;;;;;;;;12.46;100.00;100031.38;5096166;28;20282;-85
2021/03/30 07:39:23;;;;;;;;;;;;;;;13.06;100.00;100030.03;5109825;28;19924;-81
2021/03/30 07:41:50;;;;;;;;;;;;;;;13.54;100.00;100028.66;5111913;28;19931;-82
2021/03/30 07:44:22;;;;;;;;;;;;;;;13.69;100.00;100029.28;5114038;28;19941;-87
2021/03/30 07:46:49;;;;;;;;;;;;;;;13.90;100.00;100029.78;5093496;28;19931;-90
2021/03/30 07:49:16;;;;;;;;;;;;;;;13.97;100.00;100028.88;5073235;28;20026;-83
2021/03/30 07:51:44;;;;;;;;;;;;;;;14.14;100.00;100022.22;5112334;28;20038;-79
2021/03/30 07:54:15;;;;;;;;;;;;;;;14.49;100.00;100028.09;5073367;28;19930;-80
2021/03/30 07:56:42;;;;;;;;;;;;;;;15.17;100.00;100022.88;5096563;28;20279;-81
2021/03/30 07:59:09;;;;;;;;;;;;;;;15.38;100.00;100011.22;5115198;28;19928;-83
2021/03/30 08:01:37;;;;;;;;;;;;;;;15.86;100.00;100016.19;5109904;28;20034;-83
2021/03/30 08:04:04;;;;;;;;;;;;;;;16.01;100.00;100009.81;5091235;28;20350;-82
2021/03/30 08:06:47;;;;;;;;;;;;;;;16.58;100.00;100022.59;5110101;28;20382;-83
2021/03/30 08:09:16;;;;;;;;;;;;;;;16.96;100.00;100006.66;5110187;28;19930;-83
2021/03/30 08:11:43;;;;;;;;;;;;;;;16.79;100.00;100013.56;5118211;27;19923;-86
2021/03/30 08:14:16;;;;;;;;;;;;;;;17.18;100.00;100008.47;5098864;27;19924;-82
2021/03/30 08:16:48;;;;;;;;;;;;;;;17.19;100.00;100010.03;5113753;28;19950;-83
2021/03/30 08:19:15;;;;;;;;;;;;;;;17.20;100.00;100011.66;5114568;28;19946;-83
2021/03/30 08:21:54;;;;;;;;;;;;;;;17.41;100.00;100013.06;5112964;28;20027;-86
2021/03/30 08:24:23;;;;;;;;;;;;;;;17.57;100.00;100005.34;5128593;27;19923;-83
2021/03/30 08:26:50;;;;;;;;;;;;;;;17.55;100.00;100009.88;5082567;27;19924;-84
2021/03/30 08:29:18;;;;;;;;;;;;;;;17.81;100.00;100015.13;5122351;27;20026;-83
2021/03/30 08:31:46;;;;;;;;;;;;;;;18.08;100.00;100023.19;5132722;27;19927;-83
2021/03/30 08:34:14;;;;;;;;;;;;;;;17.78;100.00;100012.41;5122520;27;20403;-83
2021/03/30 08:36:44;;;;;;;;;;;;;;;17.50;100.00;100019.69;5095781;28;19924;-83
2021/03/30 08:39:12;;;;;;;;;;;;;;;17.32;100.00;100018.56;5095811;28;19980;-89
2021/03/30 08:41:41;;;;;;;;;;;;;;;17.29;100.00;100025.13;5096102;28;19924;-83
2021/03/30 08:44:14;;;;;;;;;;;;;;;17.22;100.00;100025.31;5113768;28;20380;-82
2021/03/30 08:46:42;;;;;;;;;;;;;;;17.16;100.00;100021.47;5113648;28;19938;-82
2021/03/30 08:49:22;;;;;;;;;;;;;;;17.11;100.00;100019.16;5118961;27;19959;-78
2021/03/30 08:51:51;;;;;;;;;;;;;;;16.59;100.00;100012.88;5113197;27;19928;-78
2021/03/30 08:54:22;;;;;;;;;;;;;;;16.34;100.00;100016.31;5097048;28;20464;-78
2021/03/30 08:56:50;;;;;;;;;;;;;;;16.51;100.00;100019.94;5113935;27;19931;-78
2021/03/30 08:59:18;;;;;;;;;;;;;;;16.59;100.00;100016.50;5102386;28;20093;-82
2021/03/30 09:01:45;;;;;;;;;;;;;;;16.71;100.00;100014.97;5094614;28;20438;-81
2021/03/30 09:04:12;;;;;;;;;;;;;;;16.90;100.00;100025.38;5126408;27;19938;-81
2021/03/30 09:06:41;;;;;;;;;;;;;;;16.83;100.00;100019.91;5099289;28;20019;-81
2021/03/30 09:09:33;;;;;;;;;;;;;;;16.83;100.00;100019.91;5119638;27;19924;-81
2021/03/30 09:12:01;;;;;;;;;;;;;;;16.92;100.00;100022.94;5107010;27;19923;-83
2021/03/30 09:14:28;;;;;;;;;;;;;;;16.52;100.00;100021.53;5104725;27;19962;-81
2021/03/30 09:17:05;;;;;;;;;;;;;;;16.08;100.00;100032.19;5111416;28;19963;-81
2021/03/30 09:19:44;;;;;;;;;;;;;;;16.21;100.00;100024.66;5116483;27;20026;-81
2021/03/30 09:27:36;;;;;;;;;;;;;;;16.40;100.00;100036.31;5112700;27;20287;-82
2021/03/30 09:30:08;;;;;;;;;;;;;;;16.40;100.00;100025.03;5115026;27;19952;-78
2021/03/30 09:32:35;;;;;;;;;;;;;;;16.15;100.00;100026.41;5121396;27;19946;-79
2021/03/30 09:35:03;;;;;;;;;;;;;;;15.98;100.00;100036.06;5105564;28;20057;-79
2021/03/30 09:37:49;;;;;;;;;;;;;;;15.72;100.00;100031.41;5119805;27;19927;-79
2021/03/30 09:40:17;;;;;;;;;;;;;;;15.41;100.00;100026.44;5107382;28;19928;-78
2021/03/30 09:42:49;;;;;;;;;;;;;;;15.24;100.00;100039.59;5096369;28;19923;-78
2021/03/30 09:45:25;;;;;;;;;;;;;;;15.45;100.00;100041.25;5117478;27;19947;-78
2021/03/30 09:47:52;;;;;;;;;;;;;;;15.57;100.00;100037.78;5115262;27;19930;-78
2021/03/30 09:50:20;;;;;;;;;;;;;;;15.57;100.00;100041.38;5113488;27;20072;-77
2021/03/30 09:52:48;;;;;;;;;;;;;;;15.63;100.00;100045.28;5099680;28;20019;-77
2021/03/30 09:55:34;;;;;;;;;;;;;;;15.55;100.00;100040.22;5118178;27;19923;-76
2021/03/30 09:58:02;;;;;;;;;;;;;;;15.56;100.00;100034.16;5114712;27;20022;-77
2021/03/30 10:00:33;;;;;;;;;;;;;;;15.63;100.00;100039.63;5114508;27;20011;-77
2021/03/30 10:03:00;;;;;;;;;;;;;;;15.57;100.00;100037.78;5118913;27;19927;-78
2021/03/30 10:05:34;;;;;;;;;;;;;;;15.73;100.00;100033.00;5117804;27;20554;-78
2021/03/30 10:08:01;;;;;;;;;;;;;;;15.87;100.00;100032.66;5113118;27;19930;-78
2021/03/30 10:10:40;;;;;;;;;;;;;;;15.95;100.00;100034.13;5115786;27;19924;-78
2021/03/30 10:13:08;;;;;;;;;;;;;;;16.00;100.00;100035.63;5115492;27;19923;-77
2021/03/30 10:15:37;;;;;;;;;;;;;;;16.00;100.00;100042.06;5131107;27;19930;-78
2021/03/30 10:18:05;;;;;;;;;;;;;;;16.10;100.00;100029.75;5131327;27;19924;-78
2021/03/30 10:20:51;;;;;;;;;;;;;;;16.22;100.00;100029.06;5131930;27;20417;-78
2021/03/30 10:23:24;;;;;;;;;;;;;;;16.51;100.00;100026.38;5113164;27;19964;-78
2021/03/30 10:25:51;;;;;;;;;;;;;;;16.60;100.00;100032.19;5113582;27;20431;-78
2021/03/30 10:28:28;;;;;;;;;;;;;;;16.77;100.00;100016.03;5128214;27;19939;-89
2021/03/30 10:31:05;;;;;;;;;;;;;;;16.77;100.00;100027.31;5113840;27;20012;-78
2021/03/30 10:33:32;;;;;;;;;;;;;;;16.81;100.00;100016.75;5093270;28;19962;-79
2021/03/30 10:35:59;;;;;;;;;;;;;;;16.81;100.00;100022.41;5099658;27;19930;-78
2021/03/30 10:38:26;;;;;;;;;;;;;;;16.81;100.00;100017.53;5091503;27;19928;-78
2021/03/30 10:41:03;;;;;;;;;;;;;;;16.92;100.00;100014.44;5066633;28;19934;-78
2021/03/30 10:43:35;;;;;;;;;;;;;;;16.84;100.00;100013.81;5074786;28;19934;-78
2021/03/30 10:46:20;;;;;;;;;;;;;;;16.91;100.00;100015.66;5057620;27;20191;-79
2021/03/30 10:49:07;;;;;;;;;;;;;;;17.09;100.00;100013.97;5109220;27;20390;-79
2021/03/30 10:51:35;;;;;;;;;;;;;;;17.29;100.00;100008.16;5113609;27;20475;-78
2021/03/30 10:54:03;;;;;;;;;;;;;;;17.39;100.00;100013.50;5112783;27;20014;-79
2021/03/30 10:56:36;;;;;;;;;;;;;;;17.54;100.00;99999.78;5116415;27;19924;-78
2021/03/30 10:59:24;;;;;;;;;;;;;;;17.45;100.00;100002.47;5088136;27;20048;-78
2021/03/30 11:01:51;;;;;;;;;;;;;;;17.58;100.00;99998.44;5109477;27;19934;-79
2021/03/30 11:04:17;;;;;;;;;;;;;;;17.35;100.00;100003.56;5095591;28;20317;-78
2021/03/30 11:06:46;;;;;;;;;;;;;;;17.30;100.00;100004.09;5095542;27;19935;-78
2021/03/30 11:09:13;;;;;;;;;;;;;;;17.38;100.00;100003.47;5123594;27;19955;-78
2021/03/30 11:11:40;;;;;;;;;;;;;;;17.28;100.00;100000.94;5114902;27;19930;-78
2021/03/30 11:14:07;;;;;;;;;;;;;;;17.27;100.00;100000.16;5123382;27;20253;-78
2021/03/30 11:16:34;;;;;;;;;;;;;;;17.23;100.00;99995.84;5111477;27;20059;-78
2021/03/30 11:19:14;;;;;;;;;;;;;;;17.29;100.00;100002.53;5113659;27;19930;-80
2021/03/30 11:21:41;;;;;;;;;;;;;;;17.36;100.00;99996.66;5119748;27;19924;-78
2021/03/30 11:24:11;;;;;;;;;;;;;;;17.35;100.00;99992.25;5111449;27;19932;-78
2021/03/30 11:26:39;;;;;;;;;;;;;;;17.47;100.00;99994.34;5085242;27;20010;-78
2021/03/30 11:29:10;;;;;;;;;;;;;;;17.63;100.00;99989.41;5113072;27;20436;-78
2021/03/30 11:31:53;;;;;;;;;;;;;;;17.75;100.00;100002.00;5092432;28;19951;-79
2021/03/30 11:34:30;;;;;;;;;;;;;;;18.06;100.00;99997.41;5095787;27;19927;-79
2021/03/30 11:37:19;;;;;;;;;;;;;;;18.18;100.00;99985.28;5098146;28;19924;-79
2021/03/30 11:40:06;;;;;;;;;;;;;;;18.61;100.00;99982.69;5077442;28;19935;-79
2021/03/30 11:42:45;;;;;;;;;;;;;;;18.66;100.00;99982.09;5097384;28;19954;-79
2021/03/30 11:45:11;;;;;;;;;;;;;;;18.71;100.00;99983.53;5111869;28;19980;-79
2021/03/30 11:47:38;;;;;;;;;;;;;;;18.71;100.00;99987.16;5123920;27;19923;-79
2021/03/30 11:50:06;;;;;;;;;;;;;;;18.77;100.00;99976.84;5125821;27;19924;-79
2021/03/30 11:52:33;;;;;;;;;;;;;;;18.70;100.00;99967.81;5124942;27;19934;-79
2021/03/30 11:55:00;;;;;;;;;;;;;;;18.58;100.00;99965.81;5115958;27;19924;-80
2021/03/30 11:57:27;;;;;;;;;;;;;;;18.64;100.00;99961.16;5119731;27;20077;-79
2021/03/30 11:59:53;;;;;;;;;;;;;;;18.75;100.00;99968.00;5135798;27;20006;-78
2021/03/30 12:02:20;;;;;;;;;;;;;;;18.73;100.00;99959.22;5135058;27;19974;-79
2021/03/30 12:04:47;;;;;;;;;;;;;;;18.93;100.00;99965.34;5136279;27;19927;-79
2021/03/30 12:07:14;;;;;;;;;;;;;;;19.11;100.00;99950.56;5135622;27;19977;-79
2021/03/30 12:09:55;;;;;;;;;;;;;;;18.91;100.00;99950.88;5135061;27;19950;-79
2021/03/30 12:12:22;;;;;;;;;;;;;;;18.69;100.00;99952.88;5136039;27;19927;-79
2021/03/30 12:14:49;;;;;;;;;;;;;;;18.69;100.00;99963.41;5118491;27;20014;-79
2021/03/30 12:17:15;;;;;;;;;;;;;;;18.70;100.00;99954.47;5131699;27;19923;-79
2021/03/30 12:19:42;;;;;;;;;;;;;;;18.66;100.00;99956.59;5136216;27;20419;-79
2021/03/30 12:22:08;;;;;;;;;;;;;;;18.79;100.00;99950.91;5124634;27;19923;-79
2021/03/30 12:24:38;;;;;;;;;;;;;;;18.68;100.00;99956.16;5116788;27;19927;-79
2021/03/30 12:27:09;;;;;;;;;;;;;;;18.63;100.00;99953.91;5128334;27;20408;-79
2021/03/30 12:30:05;;;;;;;;;;;;;;;18.64;100.00;99959.13;5136871;27;20022;-77
2021/03/30 12:32:32;;;;;;;;;;;;;;;18.60;100.00;99944.28;5096968;27;20349;-79
2021/03/30 12:34:59;;;;;;;;;;;;;;;18.70;100.00;99945.97;5112187;28;20441;-79
2021/03/30 12:37:26;;;;;;;;;;;;;;;18.83;100.00;99940.25;5118272;27;20823;-79
2021/03/30 12:39:53;;;;;;;;;;;;;;;18.78;100.00;99943.69;5097690;28;19923;-79
2021/03/30 12:42:20;;;;;;;;;;;;;;;19.04;100.00;99940.28;5114523;27;19930;-79
2021/03/30 12:44:46;;;;;;;;;;;;;;;18.97;100.00;99929.22;5131319;27;19927;-78
2021/03/30 12:47:13;;;;;;;;;;;;;;;18.88;100.00;99931.97;5132320;27;19923;-79
2021/03/30 12:49:39;;;;;;;;;;;;;;;18.89;100.00;99927.88;5133686;27;20282;-78
2021/03/30 12:52:06;;;;;;;;;;;;;;;18.86;100.00;99928.81;5133731;27;19923;-78
2021/03/30 12:54:32;;;;;;;;;;;;;;;18.86;100.00;99925.97;5105951;27;20281;-79
2021/03/30 12:56:59;;;;;;;;;;;;;;;18.85;100.00;99920.75;5111910;27;20495;-79
2021/03/30 12:59:26;;;;;;;;;;;;;;;18.87;100.00;99918.28;5128817;27;19963;-79
2021/03/30 13:01:53;;;;;;;;;;;;;;;18.90;100.00;99923.03;5114568;27;20014;-78